sensor_id;sensor_type;location;lat;lon;timestamp;P1;durP1;ratioP1;P2;durP2;ratioP2
74158;SDS011;62511;47.970;11.774;2023-09-12T00:00:21;9.32;;;6.07;;
74158;SDS011;62511;47.970;11.774;2023-09-12T00:02:48;10.43;;;6.68;;
74158;SDS011;62511;47.970;11.774;2023-09-12T00:05:14;12.15;;;7.20;;
74158;SDS011;62511;47.970;11.774;2023-09-12T00:07:40;9.30;;;6.05;;
74158;SDS011;62511;47.970;11.774;2023-09-12T00:10:06;8.63;;;6.00;;
74158;SDS011;62511;47.970;11.774;2023-09-12T00:12:32;11.40;;;6.25;;
74158;SDS011;62511;47.970;11.774;2023-09-12T00:14:58;8.93;;;5.95;;
74158;SDS011;62511;47.970;11.774;2023-09-12T00:17:24;11.15;;;6.43;;
74158;SDS011;62511;47.970;11.774;2023-09-12T00:19:51;9.77;;;6.45;;
74158;SDS011;62511;47.970;11.774;2023-09-12T00:22:17;8.82;;;5.53;;
74158;SDS011;62511;47.970;11.774;2023-09-12T00:24:43;9.75;;;6.65;;
74158;SDS011;62511;47.970;11.774;2023-09-12T00:27:09;9.93;;;6.53;;
74158;SDS011;62511;47.970;11.774;2023-09-12T00:29:35;10.75;;;5.95;;
74158;SDS011;62511;47.970;11.774;2023-09-12T00:32:01;11.68;;;6.72;;
74158;SDS011;62511;47.970;11.774;2023-09-12T00:34:27;10.18;;;6.68;;
74158;SDS011;62511;47.970;11.774;2023-09-12T00:36:53;11.15;;;6.47;;
74158;SDS011;62511;47.970;11.774;2023-09-12T00:39:19;10.25;;;6.53;;
74158;SDS011;62511;47.970;11.774;2023-09-12T00:41:46;13.77;;;7.28;;
74158;SDS011;62511;47.970;11.774;2023-09-12T00:44:12;11.85;;;6.78;;
74158;SDS011;62511;47.970;11.774;2023-09-12T00:46:38;11.18;;;6.85;;
74158;SDS011;62511;47.970;11.774;2023-09-12T00:49:05;13.43;;;7.50;;
74158;SDS011;62511;47.970;11.774;2023-09-12T00:51:32;12.38;;;7.25;;
74158;SDS011;62511;47.970;11.774;2023-09-12T00:53:58;11.90;;;7.63;;
74158;SDS011;62511;47.970;11.774;2023-09-12T00:56:25;12.75;;;7.85;;
74158;SDS011;62511;47.970;11.774;2023-09-12T00:58:51;11.48;;;7.15;;
74158;SDS011;62511;47.970;11.774;2023-09-12T01:01:18;13.57;;;7.65;;
74158;SDS011;62511;47.970;11.774;2023-09-12T01:03:44;12.50;;;8.10;;
74158;SDS011;62511;47.970;11.774;2023-09-12T01:06:10;11.63;;;7.50;;
74158;SDS011;62511;47.970;11.774;2023-09-12T01:08:36;16.83;;;8.02;;
74158;SDS011;62511;47.970;11.774;2023-09-12T01:11:03;12.63;;;7.78;;
74158;SDS011;62511;47.970;11.774;2023-09-12T01:13:29;14.18;;;7.55;;
74158;SDS011;62511;47.970;11.774;2023-09-12T01:15:55;12.18;;;7.15;;
74158;SDS011;62511;47.970;11.774;2023-09-12T01:18:21;11.80;;;7.63;;
74158;SDS011;62511;47.970;11.774;2023-09-12T01:20:57;11.82;;;7.93;;
74158;SDS011;62511;47.970;11.774;2023-09-12T01:28:20;11.40;;;7.00;;
74158;SDS011;62511;47.970;11.774;2023-09-12T01:30:48;11.20;;;6.57;;
74158;SDS011;62511;47.970;11.774;2023-09-12T01:33:14;10.95;;;7.18;;
74158;SDS011;62511;47.970;11.774;2023-09-12T01:35:40;9.88;;;6.55;;
74158;SDS011;62511;47.970;11.774;2023-09-12T01:38:06;10.23;;;6.50;;
74158;SDS011;62511;47.970;11.774;2023-09-12T01:40:39;11.38;;;6.65;;
74158;SDS011;62511;47.970;11.774;2023-09-12T01:43:07;9.38;;;5.82;;
74158;SDS011;62511;47.970;11.774;2023-09-12T01:45:34;9.32;;;5.68;;
74158;SDS011;62511;47.970;11.774;2023-09-12T01:48:00;9.18;;;5.97;;
74158;SDS011;62511;47.970;11.774;2023-09-12T01:50:27;11.40;;;6.22;;
74158;SDS011;62511;47.970;11.774;2023-09-12T01:52:54;8.77;;;5.63;;
74158;SDS011;62511;47.970;11.774;2023-09-12T01:55:20;8.93;;;5.38;;
74158;SDS011;62511;47.970;11.774;2023-09-12T01:57:46;10.45;;;5.68;;
74158;SDS011;62511;47.970;11.774;2023-09-12T02:00:12;9.27;;;6.00;;
74158;SDS011;62511;47.970;11.774;2023-09-12T02:02:38;9.57;;;6.30;;
74158;SDS011;62511;47.970;11.774;2023-09-12T02:05:15;11.60;;;6.28;;
74158;SDS011;62511;47.970;11.774;2023-09-12T02:07:43;11.10;;;6.25;;
74158;SDS011;62511;47.970;11.774;2023-09-12T02:10:09;11.75;;;6.40;;
74158;SDS011;62511;47.970;11.774;2023-09-12T02:12:35;9.27;;;6.38;;
74158;SDS011;62511;47.970;11.774;2023-09-12T02:15:01;10.02;;;6.55;;
74158;SDS011;62511;47.970;11.774;2023-09-12T02:17:27;12.55;;;6.55;;
74158;SDS011;62511;47.970;11.774;2023-09-12T02:19:53;9.90;;;5.90;;
74158;SDS011;62511;47.970;11.774;2023-09-12T02:22:19;8.75;;;5.57;;
74158;SDS011;62511;47.970;11.774;2023-09-12T02:24:45;9.30;;;6.18;;
74158;SDS011;62511;47.970;11.774;2023-09-12T02:27:11;9.18;;;6.15;;
74158;SDS011;62511;47.970;11.774;2023-09-12T02:29:39;9.82;;;6.40;;
74158;SDS011;62511;47.970;11.774;2023-09-12T02:32:05;11.93;;;6.68;;
74158;SDS011;62511;47.970;11.774;2023-09-12T02:34:32;11.82;;;6.60;;
74158;SDS011;62511;47.970;11.774;2023-09-12T02:36:58;12.77;;;6.47;;
74158;SDS011;62511;47.970;11.774;2023-09-12T02:39:24;13.43;;;6.28;;
74158;SDS011;62511;47.970;11.774;2023-09-12T02:41:50;14.45;;;6.90;;
74158;SDS011;62511;47.970;11.774;2023-09-12T02:44:16;10.05;;;6.13;;
74158;SDS011;62511;47.970;11.774;2023-09-12T02:46:42;9.40;;;5.68;;
74158;SDS011;62511;47.970;11.774;2023-09-12T02:49:08;9.35;;;5.95;;
74158;SDS011;62511;47.970;11.774;2023-09-12T02:51:36;11.57;;;5.95;;
74158;SDS011;62511;47.970;11.774;2023-09-12T02:54:03;9.38;;;6.25;;
74158;SDS011;62511;47.970;11.774;2023-09-12T02:56:29;11.23;;;6.10;;
74158;SDS011;62511;47.970;11.774;2023-09-12T02:58:55;11.50;;;5.80;;
74158;SDS011;62511;47.970;11.774;2023-09-12T03:01:21;12.30;;;6.55;;
74158;SDS011;62511;47.970;11.774;2023-09-12T03:03:48;9.63;;;6.15;;
74158;SDS011;62511;47.970;11.774;2023-09-12T03:06:15;10.27;;;6.65;;
74158;SDS011;62511;47.970;11.774;2023-09-12T03:08:43;10.50;;;6.13;;
74158;SDS011;62511;47.970;11.774;2023-09-12T03:11:09;9.30;;;6.22;;
74158;SDS011;62511;47.970;11.774;2023-09-12T03:13:36;11.65;;;6.25;;
74158;SDS011;62511;47.970;11.774;2023-09-12T03:16:02;9.55;;;6.03;;
74158;SDS011;62511;47.970;11.774;2023-09-12T03:18:28;10.32;;;6.32;;
74158;SDS011;62511;47.970;11.774;2023-09-12T03:20:54;10.45;;;6.10;;
74158;SDS011;62511;47.970;11.774;2023-09-12T03:23:20;8.63;;;5.60;;
74158;SDS011;62511;47.970;11.774;2023-09-12T03:25:46;10.05;;;6.47;;
74158;SDS011;62511;47.970;11.774;2023-09-12T03:28:13;8.45;;;5.70;;
74158;SDS011;62511;47.970;11.774;2023-09-12T03:30:39;9.63;;;6.15;;
74158;SDS011;62511;47.970;11.774;2023-09-12T03:33:05;9.20;;;6.15;;
74158;SDS011;62511;47.970;11.774;2023-09-12T03:35:32;10.38;;;5.95;;
74158;SDS011;62511;47.970;11.774;2023-09-12T03:37:58;8.90;;;5.65;;
74158;SDS011;62511;47.970;11.774;2023-09-12T03:40:25;10.43;;;6.47;;
74158;SDS011;62511;47.970;11.774;2023-09-12T03:42:51;9.85;;;6.25;;
74158;SDS011;62511;47.970;11.774;2023-09-12T03:45:17;9.80;;;6.20;;
74158;SDS011;62511;47.970;11.774;2023-09-12T03:47:43;9.95;;;6.30;;
74158;SDS011;62511;47.970;11.774;2023-09-12T03:50:11;10.10;;;5.82;;
74158;SDS011;62511;47.970;11.774;2023-09-12T03:52:38;9.27;;;6.13;;
74158;SDS011;62511;47.970;11.774;2023-09-12T03:55:04;9.98;;;5.90;;
74158;SDS011;62511;47.970;11.774;2023-09-12T03:57:30;9.85;;;6.68;;
74158;SDS011;62511;47.970;11.774;2023-09-12T03:59:57;9.93;;;5.60;;
74158;SDS011;62511;47.970;11.774;2023-09-12T04:02:23;8.82;;;5.78;;
74158;SDS011;62511;47.970;11.774;2023-09-12T04:04:51;9.48;;;5.68;;
74158;SDS011;62511;47.970;11.774;2023-09-12T04:07:18;8.40;;;5.57;;
74158;SDS011;62511;47.970;11.774;2023-09-12T04:12:10;7.65;;;5.22;;
74158;SDS011;62511;47.970;11.774;2023-09-12T04:14:36;9.50;;;5.70;;
74158;SDS011;62511;47.970;11.774;2023-09-12T04:17:02;9.98;;;5.95;;
74158;SDS011;62511;47.970;11.774;2023-09-12T04:19:30;9.60;;;5.57;;
74158;SDS011;62511;47.970;11.774;2023-09-12T04:21:56;8.23;;;5.20;;
74158;SDS011;62511;47.970;11.774;2023-09-12T04:24:22;10.20;;;5.63;;
74158;SDS011;62511;47.970;11.774;2023-09-12T04:26:49;7.93;;;5.30;;
74158;SDS011;62511;47.970;11.774;2023-09-12T04:29:15;9.70;;;6.32;;
74158;SDS011;62511;47.970;11.774;2023-09-12T04:31:41;7.88;;;5.80;;
74158;SDS011;62511;47.970;11.774;2023-09-12T04:34:07;9.63;;;6.05;;
74158;SDS011;62511;47.970;11.774;2023-09-12T04:36:33;9.10;;;5.07;;
74158;SDS011;62511;47.970;11.774;2023-09-12T04:38:59;8.57;;;5.85;;
74158;SDS011;62511;47.970;11.774;2023-09-12T04:41:25;11.48;;;6.68;;
74158;SDS011;62511;47.970;11.774;2023-09-12T04:43:51;9.07;;;5.80;;
74158;SDS011;62511;47.970;11.774;2023-09-12T04:46:17;10.48;;;6.13;;
74158;SDS011;62511;47.970;11.774;2023-09-12T04:48:43;8.85;;;5.70;;
74158;SDS011;62511;47.970;11.774;2023-09-12T04:51:09;7.60;;;5.30;;
74158;SDS011;62511;47.970;11.774;2023-09-12T04:53:35;9.15;;;5.68;;
74158;SDS011;62511;47.970;11.774;2023-09-12T04:56:01;9.02;;;5.50;;
74158;SDS011;62511;47.970;11.774;2023-09-12T04:58:28;8.52;;;5.50;;
74158;SDS011;62511;47.970;11.774;2023-09-12T05:00:55;8.88;;;5.82;;
74158;SDS011;62511;47.970;11.774;2023-09-12T05:03:21;12.15;;;6.70;;
74158;SDS011;62511;47.970;11.774;2023-09-12T05:05:48;9.50;;;5.50;;
74158;SDS011;62511;47.970;11.774;2023-09-12T05:10:40;9.38;;;5.57;;
74158;SDS011;62511;47.970;11.774;2023-09-12T05:13:06;8.82;;;5.35;;
74158;SDS011;62511;47.970;11.774;2023-09-12T05:15:32;9.73;;;5.60;;
74158;SDS011;62511;47.970;11.774;2023-09-12T05:17:58;8.77;;;5.40;;
74158;SDS011;62511;47.970;11.774;2023-09-12T05:20:24;8.60;;;5.68;;
74158;SDS011;62511;47.970;11.774;2023-09-12T05:22:50;9.38;;;5.90;;
74158;SDS011;62511;47.970;11.774;2023-09-12T05:25:16;9.38;;;6.05;;
74158;SDS011;62511;47.970;11.774;2023-09-12T05:27:42;10.38;;;5.85;;
74158;SDS011;62511;47.970;11.774;2023-09-12T05:30:08;9.68;;;5.53;;
74158;SDS011;62511;47.970;11.774;2023-09-12T05:32:34;7.60;;;5.40;;
74158;SDS011;62511;47.970;11.774;2023-09-12T05:35:01;9.50;;;6.00;;
74158;SDS011;62511;47.970;11.774;2023-09-12T05:37:27;8.98;;;6.15;;
74158;SDS011;62511;47.970;11.774;2023-09-12T05:39:53;7.85;;;5.30;;
74158;SDS011;62511;47.970;11.774;2023-09-12T05:42:19;9.43;;;6.10;;
74158;SDS011;62511;47.970;11.774;2023-09-12T05:44:47;10.57;;;5.93;;
74158;SDS011;62511;47.970;11.774;2023-09-12T05:47:14;7.68;;;5.35;;
74158;SDS011;62511;47.970;11.774;2023-09-12T05:49:40;9.45;;;5.40;;
74158;SDS011;62511;47.970;11.774;2023-09-12T05:52:06;10.38;;;5.90;;
74158;SDS011;62511;47.970;11.774;2023-09-12T05:54:32;10.32;;;6.20;;
74158;SDS011;62511;47.970;11.774;2023-09-12T05:56:58;10.40;;;6.00;;
74158;SDS011;62511;47.970;11.774;2023-09-12T05:59:24;13.65;;;6.35;;
74158;SDS011;62511;47.970;11.774;2023-09-12T06:01:50;12.60;;;6.38;;
74158;SDS011;62511;47.970;11.774;2023-09-12T06:04:17;8.40;;;5.50;;
74158;SDS011;62511;47.970;11.774;2023-09-12T06:06:43;10.77;;;6.28;;
74158;SDS011;62511;47.970;11.774;2023-09-12T06:09:10;9.65;;;5.82;;
74158;SDS011;62511;47.970;11.774;2023-09-12T06:11:36;10.60;;;6.07;;
74158;SDS011;62511;47.970;11.774;2023-09-12T06:14:02;8.38;;;5.88;;
74158;SDS011;62511;47.970;11.774;2023-09-12T06:16:28;10.95;;;6.47;;
74158;SDS011;62511;47.970;11.774;2023-09-12T06:18:56;9.15;;;5.88;;
74158;SDS011;62511;47.970;11.774;2023-09-12T06:21:22;8.43;;;5.80;;
74158;SDS011;62511;47.970;11.774;2023-09-12T06:23:57;10.43;;;6.53;;
74158;SDS011;62511;47.970;11.774;2023-09-12T06:26:33;10.40;;;5.82;;
74158;SDS011;62511;47.970;11.774;2023-09-12T06:28:59;10.80;;;5.93;;
74158;SDS011;62511;47.970;11.774;2023-09-12T06:31:25;9.07;;;6.00;;
74158;SDS011;62511;47.970;11.774;2023-09-12T06:33:51;8.95;;;5.47;;
74158;SDS011;62511;47.970;11.774;2023-09-12T06:36:16;8.38;;;5.30;;
74158;SDS011;62511;47.970;11.774;2023-09-12T06:38:42;7.60;;;5.03;;
74158;SDS011;62511;47.970;11.774;2023-09-12T06:41:08;6.70;;;5.15;;
74158;SDS011;62511;47.970;11.774;2023-09-12T06:43:34;8.15;;;5.40;;
74158;SDS011;62511;47.970;11.774;2023-09-12T06:46:00;8.63;;;5.18;;
74158;SDS011;62511;47.970;11.774;2023-09-12T06:48:26;8.23;;;5.35;;
74158;SDS011;62511;47.970;11.774;2023-09-12T06:50:53;8.95;;;5.15;;
74158;SDS011;62511;47.970;11.774;2023-09-12T06:53:20;8.93;;;5.65;;
74158;SDS011;62511;47.970;11.774;2023-09-12T06:55:46;9.32;;;6.28;;
74158;SDS011;62511;47.970;11.774;2023-09-12T06:58:12;9.73;;;5.00;;
74158;SDS011;62511;47.970;11.774;2023-09-12T07:00:37;7.05;;;5.38;;
74158;SDS011;62511;47.970;11.774;2023-09-12T07:03:04;7.80;;;4.50;;
74158;SDS011;62511;47.970;11.774;2023-09-12T07:05:31;8.90;;;4.93;;
74158;SDS011;62511;47.970;11.774;2023-09-12T07:07:57;8.85;;;5.30;;
74158;SDS011;62511;47.970;11.774;2023-09-12T07:10:23;11.95;;;5.22;;
74158;SDS011;62511;47.970;11.774;2023-09-12T07:12:49;7.65;;;5.10;;
74158;SDS011;62511;47.970;11.774;2023-09-12T07:15:15;7.32;;;5.45;;
74158;SDS011;62511;47.970;11.774;2023-09-12T07:17:41;8.63;;;6.10;;
74158;SDS011;62511;47.970;11.774;2023-09-12T07:20:07;7.60;;;4.93;;
74158;SDS011;62511;47.970;11.774;2023-09-12T07:22:37;8.38;;;5.70;;
74158;SDS011;62511;47.970;11.774;2023-09-12T07:25:04;8.02;;;5.70;;
74158;SDS011;62511;47.970;11.774;2023-09-12T07:27:30;5.88;;;4.75;;
74158;SDS011;62511;47.970;11.774;2023-09-12T07:29:56;6.55;;;5.10;;
74158;SDS011;62511;47.970;11.774;2023-09-12T07:32:22;7.43;;;5.18;;
74158;SDS011;62511;47.970;11.774;2023-09-12T07:34:49;7.32;;;5.35;;
74158;SDS011;62511;47.970;11.774;2023-09-12T07:37:15;8.15;;;5.63;;
74158;SDS011;62511;47.970;11.774;2023-09-12T07:39:41;12.30;;;6.25;;
74158;SDS011;62511;47.970;11.774;2023-09-12T07:42:07;7.80;;;5.30;;
74158;SDS011;62511;47.970;11.774;2023-09-12T07:44:33;9.77;;;6.07;;
74158;SDS011;62511;47.970;11.774;2023-09-12T07:46:59;10.43;;;5.97;;
74158;SDS011;62511;47.970;11.774;2023-09-12T07:49:25;8.30;;;5.85;;
74158;SDS011;62511;47.970;11.774;2023-09-12T07:51:51;8.18;;;5.80;;
74158;SDS011;62511;47.970;11.774;2023-09-12T07:54:19;9.95;;;5.60;;
74158;SDS011;62511;47.970;11.774;2023-09-12T07:56:45;6.63;;;5.55;;
74158;SDS011;62511;47.970;11.774;2023-09-12T07:59:11;9.73;;;5.80;;
74158;SDS011;62511;47.970;11.774;2023-09-12T08:01:39;7.32;;;5.38;;
74158;SDS011;62511;47.970;11.774;2023-09-12T08:04:05;7.75;;;5.47;;
74158;SDS011;62511;47.970;11.774;2023-09-12T08:06:31;8.35;;;5.57;;
74158;SDS011;62511;47.970;11.774;2023-09-12T08:08:58;7.47;;;5.80;;
74158;SDS011;62511;47.970;11.774;2023-09-12T08:11:24;8.50;;;6.00;;
74158;SDS011;62511;47.970;11.774;2023-09-12T08:13:51;7.60;;;5.93;;
74158;SDS011;62511;47.970;11.774;2023-09-12T08:16:17;12.32;;;5.72;;
74158;SDS011;62511;47.970;11.774;2023-09-12T08:18:43;6.80;;;5.53;;
74158;SDS011;62511;47.970;11.774;2023-09-12T08:21:09;10.88;;;6.47;;
74158;SDS011;62511;47.970;11.774;2023-09-12T08:23:35;8.18;;;5.55;;
74158;SDS011;62511;47.970;11.774;2023-09-12T08:26:01;8.40;;;5.60;;
74158;SDS011;62511;47.970;11.774;2023-09-12T08:28:27;7.35;;;5.28;;
74158;SDS011;62511;47.970;11.774;2023-09-12T08:30:53;9.57;;;6.25;;
74158;SDS011;62511;47.970;11.774;2023-09-12T08:33:19;9.48;;;5.82;;
74158;SDS011;62511;47.970;11.774;2023-09-12T08:35:45;10.00;;;5.80;;
74158;SDS011;62511;47.970;11.774;2023-09-12T08:38:11;8.85;;;5.85;;
74158;SDS011;62511;47.970;11.774;2023-09-12T08:40:38;9.00;;;5.90;;
74158;SDS011;62511;47.970;11.774;2023-09-12T08:43:04;8.93;;;5.90;;
74158;SDS011;62511;47.970;11.774;2023-09-12T08:45:30;9.63;;;5.93;;
74158;SDS011;62511;47.970;11.774;2023-09-12T08:47:58;6.90;;;5.70;;
74158;SDS011;62511;47.970;11.774;2023-09-12T08:50:26;8.55;;;6.15;;
74158;SDS011;62511;47.970;11.774;2023-09-12T08:52:56;7.97;;;5.43;;
74158;SDS011;62511;47.970;11.774;2023-09-12T08:55:22;9.75;;;6.45;;
74158;SDS011;62511;47.970;11.774;2023-09-12T08:57:48;7.65;;;5.97;;
74158;SDS011;62511;47.970;11.774;2023-09-12T09:00:15;8.40;;;5.70;;
74158;SDS011;62511;47.970;11.774;2023-09-12T09:02:43;8.10;;;5.68;;
74158;SDS011;62511;47.970;11.774;2023-09-12T09:05:10;7.55;;;5.78;;
74158;SDS011;62511;47.970;11.774;2023-09-12T09:07:37;9.40;;;5.72;;
74158;SDS011;62511;47.970;11.774;2023-09-12T09:10:03;8.57;;;5.97;;
74158;SDS011;62511;47.970;11.774;2023-09-12T09:12:30;8.15;;;5.35;;
74158;SDS011;62511;47.970;11.774;2023-09-12T09:14:56;7.97;;;5.90;;
74158;SDS011;62511;47.970;11.774;2023-09-12T09:17:23;7.82;;;5.65;;
74158;SDS011;62511;47.970;11.774;2023-09-12T09:22:15;7.43;;;5.07;;
74158;SDS011;62511;47.970;11.774;2023-09-12T09:24:41;7.32;;;5.18;;
74158;SDS011;62511;47.970;11.774;2023-09-12T09:27:07;5.82;;;4.90;;
74158;SDS011;62511;47.970;11.774;2023-09-12T09:29:45;7.88;;;5.68;;
74158;SDS011;62511;47.970;11.774;2023-09-12T09:32:16;9.90;;;5.25;;
74158;SDS011;62511;47.970;11.774;2023-09-12T09:34:42;7.82;;;5.85;;
74158;SDS011;62511;47.970;11.774;2023-09-12T09:37:08;8.05;;;5.93;;
74158;SDS011;62511;47.970;11.774;2023-09-12T09:39:35;7.40;;;5.63;;
74158;SDS011;62511;47.970;11.774;2023-09-12T09:42:01;6.20;;;5.32;;
74158;SDS011;62511;47.970;11.774;2023-09-12T09:44:27;7.28;;;5.95;;
74158;SDS011;62511;47.970;11.774;2023-09-12T09:46:59;8.02;;;5.70;;
74158;SDS011;62511;47.970;11.774;2023-09-12T09:49:27;6.95;;;5.60;;
74158;SDS011;62511;47.970;11.774;2023-09-12T09:51:54;6.53;;;5.03;;
74158;SDS011;62511;47.970;11.774;2023-09-12T09:54:23;7.35;;;5.10;;
74158;SDS011;62511;47.970;11.774;2023-09-12T09:56:50;8.00;;;5.43;;
74158;SDS011;62511;47.970;11.774;2023-09-12T09:59:19;7.22;;;5.43;;
74158;SDS011;62511;47.970;11.774;2023-09-12T10:01:46;6.40;;;5.30;;
74158;SDS011;62511;47.970;11.774;2023-09-12T10:04:13;8.57;;;5.70;;
74158;SDS011;62511;47.970;11.774;2023-09-12T10:06:42;7.38;;;5.43;;
74158;SDS011;62511;47.970;11.774;2023-09-12T10:09:12;7.82;;;4.78;;
74158;SDS011;62511;47.970;11.774;2023-09-12T10:11:40;7.05;;;5.07;;
74158;SDS011;62511;47.970;11.774;2023-09-12T10:14:06;6.15;;;4.90;;
74158;SDS011;62511;47.970;11.774;2023-09-12T10:21:35;6.53;;;5.00;;
74158;SDS011;62511;47.970;11.774;2023-09-12T10:24:02;6.40;;;5.32;;
74158;SDS011;62511;47.970;11.774;2023-09-12T10:26:30;7.60;;;5.22;;
74158;SDS011;62511;47.970;11.774;2023-09-12T10:28:56;5.72;;;4.85;;
74158;SDS011;62511;47.970;11.774;2023-09-12T10:31:23;9.38;;;5.10;;
74158;SDS011;62511;47.970;11.774;2023-09-12T10:33:49;4.82;;;4.28;;
74158;SDS011;62511;47.970;11.774;2023-09-12T10:36:17;6.97;;;5.03;;
74158;SDS011;62511;47.970;11.774;2023-09-12T10:38:44;5.72;;;5.13;;
74158;SDS011;62511;47.970;11.774;2023-09-12T10:41:13;6.32;;;4.90;;
74158;SDS011;62511;47.970;11.774;2023-09-12T10:43:44;7.40;;;5.32;;
74158;SDS011;62511;47.970;11.774;2023-09-12T10:46:17;7.70;;;5.38;;
74158;SDS011;62511;47.970;11.774;2023-09-12T10:48:43;6.82;;;5.35;;
74158;SDS011;62511;47.970;11.774;2023-09-12T10:51:09;7.47;;;5.45;;
74158;SDS011;62511;47.970;11.774;2023-09-12T10:53:35;6.05;;;5.10;;
74158;SDS011;62511;47.970;11.774;2023-09-12T10:58:31;6.95;;;5.38;;
74158;SDS011;62511;47.970;11.774;2023-09-12T11:03:41;6.18;;;4.90;;
74158;SDS011;62511;47.970;11.774;2023-09-12T11:06:19;6.35;;;4.70;;
74158;SDS011;62511;47.970;11.774;2023-09-12T11:08:48;8.70;;;5.25;;
74158;SDS011;62511;47.970;11.774;2023-09-12T11:11:32;5.95;;;4.85;;
74158;SDS011;62511;47.970;11.774;2023-09-12T11:14:04;9.10;;;5.32;;
74158;SDS011;62511;47.970;11.774;2023-09-12T11:16:30;6.93;;;5.22;;
74158;SDS011;62511;47.970;11.774;2023-09-12T11:19:12;8.18;;;4.88;;
74158;SDS011;62511;47.970;11.774;2023-09-12T11:21:45;6.50;;;5.13;;
74158;SDS011;62511;47.970;11.774;2023-09-12T11:24:12;6.15;;;5.00;;
74158;SDS011;62511;47.970;11.774;2023-09-12T11:29:10;6.35;;;5.50;;
74158;SDS011;62511;47.970;11.774;2023-09-12T11:31:37;9.10;;;5.65;;
74158;SDS011;62511;47.970;11.774;2023-09-12T11:34:08;6.07;;;5.45;;
74158;SDS011;62511;47.970;11.774;2023-09-12T11:36:40;6.53;;;5.80;;
74158;SDS011;62511;47.970;11.774;2023-09-12T11:39:21;7.13;;;5.63;;
74158;SDS011;62511;47.970;11.774;2023-09-12T11:41:49;6.25;;;5.40;;
74158;SDS011;62511;47.970;11.774;2023-09-12T11:44:16;6.95;;;5.72;;
74158;SDS011;62511;47.970;11.774;2023-09-12T11:49:08;7.60;;;6.07;;
74158;SDS011;62511;47.970;11.774;2023-09-12T11:51:34;8.68;;;5.82;;
74158;SDS011;62511;47.970;11.774;2023-09-12T11:54:00;6.90;;;5.60;;
74158;SDS011;62511;47.970;11.774;2023-09-12T11:56:28;7.75;;;6.15;;
74158;SDS011;62511;47.970;11.774;2023-09-12T11:58:56;9.18;;;5.68;;
74158;SDS011;62511;47.970;11.774;2023-09-12T12:01:22;7.90;;;5.38;;
74158;SDS011;62511;47.970;11.774;2023-09-12T12:03:48;7.53;;;5.75;;
74158;SDS011;62511;47.970;11.774;2023-09-12T12:06:17;6.28;;;5.15;;
74158;SDS011;62511;47.970;11.774;2023-09-12T12:08:44;6.68;;;5.53;;
74158;SDS011;62511;47.970;11.774;2023-09-12T12:11:11;7.25;;;5.68;;
74158;SDS011;62511;47.970;11.774;2023-09-12T12:13:37;7.95;;;5.75;;
74158;SDS011;62511;47.970;11.774;2023-09-12T12:16:25;7.53;;;5.90;;
74158;SDS011;62511;47.970;11.774;2023-09-12T12:18:49;8.00;;;5.82;;
74158;SDS011;62511;47.970;11.774;2023-09-12T12:21:19;6.93;;;5.80;;
74158;SDS011;62511;47.970;11.774;2023-09-12T12:23:45;7.90;;;5.47;;
74158;SDS011;62511;47.970;11.774;2023-09-12T12:26:11;6.60;;;5.88;;
74158;SDS011;62511;47.970;11.774;2023-09-12T12:28:38;7.07;;;5.40;;
74158;SDS011;62511;47.970;11.774;2023-09-12T12:31:04;7.88;;;5.85;;
74158;SDS011;62511;47.970;11.774;2023-09-12T12:33:30;8.93;;;5.75;;
74158;SDS011;62511;47.970;11.774;2023-09-12T12:38:22;6.95;;;5.05;;
74158;SDS011;62511;47.970;11.774;2023-09-12T12:40:48;6.72;;;5.38;;
74158;SDS011;62511;47.970;11.774;2023-09-12T12:43:17;8.32;;;5.43;;
74158;SDS011;62511;47.970;11.774;2023-09-12T12:45:54;6.22;;;5.60;;
74158;SDS011;62511;47.970;11.774;2023-09-12T12:48:33;8.73;;;5.80;;
74158;SDS011;62511;47.970;11.774;2023-09-12T12:51:17;6.88;;;5.20;;
74158;SDS011;62511;47.970;11.774;2023-09-12T12:53:44;7.13;;;5.00;;
74158;SDS011;62511;47.970;11.774;2023-09-12T12:56:12;5.65;;;5.00;;
74158;SDS011;62511;47.970;11.774;2023-09-12T12:58:39;6.20;;;5.28;;
74158;SDS011;62511;47.970;11.774;2023-09-12T13:01:05;6.05;;;5.30;;
74158;SDS011;62511;47.970;11.774;2023-09-12T13:03:31;5.82;;;5.10;;
74158;SDS011;62511;47.970;11.774;2023-09-12T13:05:57;6.18;;;5.28;;
74158;SDS011;62511;47.970;11.774;2023-09-12T13:08:24;6.60;;;5.18;;
74158;SDS011;62511;47.970;11.774;2023-09-12T13:10:50;7.75;;;5.57;;
74158;SDS011;62511;47.970;11.774;2023-09-12T13:13:16;5.85;;;5.03;;
74158;SDS011;62511;47.970;11.774;2023-09-12T13:15:42;6.93;;;5.10;;
74158;SDS011;62511;47.970;11.774;2023-09-12T13:18:08;6.78;;;5.68;;
74158;SDS011;62511;47.970;11.774;2023-09-12T13:20:34;7.07;;;5.10;;
74158;SDS011;62511;47.970;11.774;2023-09-12T13:23:01;7.72;;;5.13;;
74158;SDS011;62511;47.970;11.774;2023-09-12T13:25:27;10.05;;;5.10;;
74158;SDS011;62511;47.970;11.774;2023-09-12T13:27:53;6.47;;;5.65;;
74158;SDS011;62511;47.970;11.774;2023-09-12T13:30:19;6.53;;;5.22;;
74158;SDS011;62511;47.970;11.774;2023-09-12T13:32:45;6.05;;;5.07;;
74158;SDS011;62511;47.970;11.774;2023-09-12T13:37:37;7.45;;;4.68;;
74158;SDS011;62511;47.970;11.774;2023-09-12T13:40:03;6.45;;;5.30;;
74158;SDS011;62511;47.970;11.774;2023-09-12T13:42:31;7.57;;;5.13;;
74158;SDS011;62511;47.970;11.774;2023-09-12T13:44:57;7.38;;;5.35;;
74158;SDS011;62511;47.970;11.774;2023-09-12T13:47:23;6.68;;;5.25;;
74158;SDS011;62511;47.970;11.774;2023-09-12T13:49:50;8.57;;;5.85;;
74158;SDS011;62511;47.970;11.774;2023-09-12T13:52:18;5.38;;;4.88;;
74158;SDS011;62511;47.970;11.774;2023-09-12T13:54:44;7.57;;;5.80;;
74158;SDS011;62511;47.970;11.774;2023-09-12T13:57:10;9.50;;;6.10;;
74158;SDS011;62511;47.970;11.774;2023-09-12T13:59:36;8.15;;;5.93;;
74158;SDS011;62511;47.970;11.774;2023-09-12T14:02:02;6.50;;;5.38;;
74158;SDS011;62511;47.970;11.774;2023-09-12T14:04:28;7.28;;;5.32;;
74158;SDS011;62511;47.970;11.774;2023-09-12T14:06:54;8.13;;;5.75;;
74158;SDS011;62511;47.970;11.774;2023-09-12T14:09:20;8.18;;;5.78;;
74158;SDS011;62511;47.970;11.774;2023-09-12T14:11:47;6.82;;;5.03;;
74158;SDS011;62511;47.970;11.774;2023-09-12T14:14:13;8.02;;;5.47;;
74158;SDS011;62511;47.970;11.774;2023-09-12T14:16:39;9.25;;;6.00;;
74158;SDS011;62511;47.970;11.774;2023-09-12T14:19:05;12.32;;;6.20;;
74158;SDS011;62511;47.970;11.774;2023-09-12T14:21:31;9.43;;;5.35;;
74158;SDS011;62511;47.970;11.774;2023-09-12T14:23:57;6.45;;;5.57;;
74158;SDS011;62511;47.970;11.774;2023-09-12T14:26:23;7.13;;;5.32;;
74158;SDS011;62511;47.970;11.774;2023-09-12T14:28:49;7.57;;;5.78;;
74158;SDS011;62511;47.970;11.774;2023-09-12T14:31:15;10.10;;;6.53;;
74158;SDS011;62511;47.970;11.774;2023-09-12T14:36:08;8.20;;;5.65;;
74158;SDS011;62511;47.970;11.774;2023-09-12T14:38:34;7.10;;;5.70;;
74158;SDS011;62511;47.970;11.774;2023-09-12T14:41:00;7.78;;;5.53;;
74158;SDS011;62511;47.970;11.774;2023-09-12T14:43:26;8.75;;;6.03;;
74158;SDS011;62511;47.970;11.774;2023-09-12T14:45:56;6.95;;;5.68;;
74158;SDS011;62511;47.970;11.774;2023-09-12T14:48:39;8.15;;;6.40;;
74158;SDS011;62511;47.970;11.774;2023-09-12T14:51:05;9.38;;;6.75;;
74158;SDS011;62511;47.970;11.774;2023-09-12T14:53:31;9.05;;;5.88;;
74158;SDS011;62511;47.970;11.774;2023-09-12T14:55:57;8.23;;;6.28;;
74158;SDS011;62511;47.970;11.774;2023-09-12T14:58:23;8.23;;;5.85;;
74158;SDS011;62511;47.970;11.774;2023-09-12T15:00:49;9.30;;;6.30;;
74158;SDS011;62511;47.970;11.774;2023-09-12T15:03:15;8.32;;;5.85;;